createdAt,value
2019-02-18T00:01:54.793Z,12.40
2019-02-18T00:04:26.456Z,12.40
2019-02-18T00:06:58.156Z,12.40
2019-02-18T00:09:29.919Z,12.40
2019-02-18T00:12:01.651Z,12.40
2019-02-18T00:14:33.354Z,12.30
2019-02-18T00:17:05.247Z,12.30
2019-02-18T00:19:36.988Z,12.30
2019-02-18T00:22:08.868Z,12.30
2019-02-18T00:24:40.592Z,12.30
2019-02-18T00:27:13.539Z,12.30
2019-02-18T00:29:45.226Z,12.30
2019-02-18T00:32:16.890Z,12.30
2019-02-18T00:34:48.614Z,12.20
2019-02-18T00:37:24.426Z,12.20
2019-02-18T00:39:53.638Z,12.20
2019-02-18T00:42:25.384Z,12.10
2019-02-18T00:44:57.082Z,12.20
2019-02-18T00:47:28.715Z,12.20
2019-02-18T00:50:00.421Z,12.10
2019-02-18T00:52:32.102Z,12.10
2019-02-18T00:55:03.934Z,12.10
2019-02-18T00:57:35.627Z,12.10
2019-02-18T01:00:08.422Z,12.10
2019-02-18T01:02:40.292Z,12.10
2019-02-18T01:05:12.034Z,12.10
2019-02-18T01:07:43.777Z,12.10
2019-02-18T01:10:15.461Z,12.10
2019-02-18T01:12:47.237Z,12.10
2019-02-18T01:15:18.923Z,12.00
2019-02-18T01:17:50.611Z,12.00
2019-02-18T01:20:22.306Z,12.10
2019-02-18T01:22:54.015Z,12.00
2019-02-18T01:25:25.814Z,12.10
2019-02-18T01:27:57.640Z,12.00
2019-02-18T01:30:41.142Z,12.00
2019-02-18T01:33:12.822Z,12.00
2019-02-18T01:35:44.682Z,12.00
2019-02-18T01:38:16.330Z,11.90
2019-02-18T01:40:47.979Z,11.90
2019-02-18T01:43:19.614Z,11.90
2019-02-18T01:45:51.456Z,11.90
2019-02-18T01:48:23.199Z,11.80
2019-02-18T01:50:54.914Z,11.80
2019-02-18T01:53:26.605Z,11.80
2019-02-18T01:55:58.343Z,11.80
2019-02-18T01:58:30.137Z,11.80
2019-02-18T02:01:01.778Z,11.70
2019-02-18T02:03:33.482Z,11.70
2019-02-18T02:06:05.343Z,11.70
2019-02-18T02:08:37.096Z,11.60
2019-02-18T02:11:08.847Z,11.60
2019-02-18T02:13:40.530Z,11.60
2019-02-18T02:16:13.460Z,11.60
2019-02-18T02:18:45.314Z,11.60
2019-02-18T02:21:16.988Z,11.50
2019-02-18T02:23:48.667Z,11.60
2019-02-18T02:26:20.348Z,11.50
2019-02-18T02:28:52.111Z,11.50
2019-02-18T02:31:23.815Z,11.50
2019-02-18T02:33:55.514Z,11.50
2019-02-18T02:36:27.170Z,11.40
2019-02-18T02:38:58.885Z,11.40
2019-02-18T02:41:30.678Z,11.40
2019-02-18T02:44:02.373Z,11.40
2019-02-18T02:46:34.026Z,11.40
2019-02-18T02:49:05.688Z,11.40
2019-02-18T02:51:37.317Z,11.40
2019-02-18T02:54:08.992Z,11.40
2019-02-18T02:56:40.673Z,11.40
2019-02-18T03:02:09.301Z,11.40
2019-02-18T03:04:40.967Z,11.40
2019-02-18T03:07:12.618Z,11.40
2019-02-18T03:09:44.590Z,11.40
2019-02-18T03:12:16.239Z,11.40
2019-02-18T03:14:48.161Z,11.40
2019-02-18T03:17:20.098Z,11.40
2019-02-18T03:19:51.909Z,11.40
2019-02-18T03:22:23.569Z,11.40
2019-02-18T03:25:28.144Z,11.40
2019-02-18T03:28:47.797Z,11.40
2019-02-18T03:31:25.007Z,11.40
2019-02-18T03:34:05.691Z,11.40
2019-02-18T03:36:37.420Z,11.30
2019-02-18T03:39:09.096Z,11.30
2019-02-18T03:41:41.127Z,11.30
2019-02-18T03:44:12.921Z,11.30
2019-02-18T03:46:44.612Z,11.20
2019-02-18T03:49:16.311Z,11.20
2019-02-18T03:51:47.980Z,11.20
2019-02-18T03:54:19.767Z,11.20
2019-02-18T03:56:51.614Z,11.20
2019-02-18T03:59:23.656Z,11.20
2019-02-18T04:01:55.302Z,11.20
2019-02-18T04:04:27.058Z,11.20
2019-02-18T04:06:58.698Z,11.20
2019-02-18T04:09:30.383Z,11.10
2019-02-18T04:12:02.167Z,11.10
2019-02-18T04:14:33.865Z,11.10
2019-02-18T04:17:05.566Z,11.00
2019-02-18T04:19:37.231Z,11.00
2019-02-18T04:22:08.944Z,11.00
2019-02-18T04:24:40.595Z,11.00
2019-02-18T04:27:12.284Z,11.00
2019-02-18T04:29:43.938Z,11.00
2019-02-18T04:32:15.706Z,10.90
2019-02-18T04:34:47.323Z,10.90
2019-02-18T04:37:19.020Z,10.80
2019-02-18T04:39:50.649Z,10.90
2019-02-18T04:42:22.393Z,10.80
2019-02-18T04:44:54.093Z,10.80
2019-02-18T04:47:25.764Z,10.80
2019-02-18T04:49:57.477Z,10.80
2019-02-18T04:52:29.227Z,10.70
2019-02-18T04:55:00.891Z,10.80
2019-02-18T04:57:32.574Z,10.70
2019-02-18T05:00:04.684Z,10.70
2019-02-18T05:02:36.489Z,10.70
2019-02-18T05:05:08.467Z,10.60
2019-02-18T05:07:40.440Z,10.60
2019-02-18T05:10:12.152Z,10.60
2019-02-18T05:12:43.847Z,10.50
2019-02-18T05:15:15.545Z,10.50
2019-02-18T05:17:47.392Z,10.50
2019-02-18T05:20:19.002Z,10.40
2019-02-18T05:22:50.769Z,10.40
2019-02-18T05:25:22.381Z,10.40
2019-02-18T05:27:54.152Z,10.40
2019-02-18T05:30:25.836Z,10.30
2019-02-18T05:32:57.500Z,10.30
2019-02-18T05:35:29.208Z,10.30
2019-02-18T05:38:00.985Z,10.30
2019-02-18T05:40:32.624Z,10.20
2019-02-18T05:43:04.328Z,10.20
2019-02-18T05:45:36.092Z,10.20
2019-02-18T05:48:07.749Z,10.30
2019-02-18T05:50:39.452Z,10.20
2019-02-18T05:53:11.376Z,10.20
2019-02-18T05:55:43.090Z,10.30
2019-02-18T05:58:14.820Z,10.30
2019-02-18T06:00:46.477Z,10.30
2019-02-18T06:03:18.238Z,10.30
2019-02-18T06:05:49.951Z,10.30
2019-02-18T06:08:21.629Z,10.40
2019-02-18T06:10:53.323Z,10.40
2019-02-18T06:13:24.974Z,10.30
2019-02-18T06:15:56.671Z,10.50
2019-02-18T06:18:28.381Z,10.50
2019-02-18T06:21:00.037Z,10.50
2019-02-18T06:23:31.713Z,10.50
2019-02-18T06:26:03.410Z,10.50
2019-02-18T06:28:35.159Z,10.50
2019-02-18T06:31:06.896Z,10.60
2019-02-18T06:33:38.567Z,10.60
2019-02-18T06:36:10.297Z,10.60
2019-02-18T06:38:41.935Z,10.60
2019-02-18T06:41:13.679Z,10.60
2019-02-18T06:43:45.343Z,10.60
2019-02-18T06:46:32.673Z,10.70
2019-02-18T06:49:25.138Z,10.70
2019-02-18T06:51:56.809Z,10.70
2019-02-18T06:54:28.556Z,10.70
2019-02-18T06:57:25.155Z,10.70
2019-02-18T07:00:02.014Z,10.70
2019-02-18T07:02:50.671Z,10.70
2019-02-18T07:05:46.388Z,10.70
2019-02-18T07:08:37.206Z,10.70
2019-02-18T07:11:13.174Z,10.70
2019-02-18T07:13:44.908Z,10.70
2019-02-18T07:16:16.610Z,10.80
2019-02-18T07:18:48.248Z,10.80
2019-02-18T07:21:21.365Z,10.80
2019-02-18T07:23:53.151Z,9.60
2019-02-18T07:26:24.929Z,10.80
2019-02-18T07:28:56.685Z,10.80
2019-02-18T07:31:28.521Z,10.90
2019-02-18T07:34:01.476Z,10.90
2019-02-18T07:36:34.988Z,10.90
2019-02-18T07:39:08.805Z,10.90
2019-02-18T07:41:40.681Z,11.00
2019-02-18T07:44:13.691Z,11.00
2019-02-18T07:46:45.325Z,11.00
2019-02-18T07:49:18.342Z,11.10
2019-02-18T07:51:50.048Z,11.20
2019-02-18T07:54:21.888Z,11.20
2019-02-18T07:56:53.592Z,11.20
2019-02-18T07:59:26.184Z,11.30
2019-02-18T08:01:57.967Z,11.30
2019-02-18T08:04:29.809Z,11.40
2019-02-18T08:07:01.740Z,11.40
2019-02-18T08:09:33.484Z,11.50
2019-02-18T08:12:05.127Z,11.50
2019-02-18T08:14:38.193Z,11.60
2019-02-18T08:17:09.871Z,11.50
2019-02-18T08:19:41.555Z,11.70
2019-02-18T08:22:13.217Z,11.80
2019-02-18T08:24:44.945Z,11.80
2019-02-18T08:27:16.647Z,11.90
2019-02-18T08:29:48.409Z,12.00
2019-02-18T08:32:20.295Z,12.00
2019-02-18T08:34:52.034Z,12.10
2019-02-18T08:37:24.470Z,12.10
2019-02-18T08:39:56.341Z,12.20
2019-02-18T08:42:28.312Z,12.30
2019-02-18T08:45:00.309Z,12.40
2019-02-18T08:47:32.162Z,12.40
2019-02-18T08:50:03.914Z,12.50
2019-02-18T08:52:35.590Z,12.60
2019-02-18T08:55:09.690Z,12.70
2019-02-18T08:57:41.549Z,12.70
2019-02-18T09:00:17.607Z,12.80
2019-02-18T09:02:49.294Z,12.90
2019-02-18T09:05:21.251Z,12.90
2019-02-18T09:07:53.217Z,13.00
2019-02-18T09:10:33.069Z,13.10
2019-02-18T09:12:58.352Z,13.20
2019-02-18T09:15:30.063Z,13.30
2019-02-18T09:18:03.160Z,13.40
2019-02-18T09:20:34.805Z,13.60
2019-02-18T09:23:25.555Z,13.60
2019-02-18T09:26:00.079Z,13.70
2019-02-18T09:28:32.679Z,13.90
2019-02-18T09:31:04.644Z,14.10
2019-02-18T09:33:36.608Z,14.30
2019-02-18T09:36:11.624Z,14.50
2019-02-18T09:38:46.533Z,14.70
2019-02-18T09:41:20.989Z,15.00
2019-02-18T09:43:54.215Z,15.30
2019-02-18T09:46:28.274Z,15.60
2019-02-18T09:49:01.381Z,16.00
2019-02-18T09:51:35.160Z,16.30
2019-02-18T09:54:07.388Z,16.80
2019-02-18T09:56:42.210Z,17.20
2019-02-18T09:59:13.899Z,17.70
2019-02-18T10:01:45.726Z,18.20
2019-02-18T10:04:19.523Z,18.60
2019-02-18T10:06:51.283Z,19.10
2019-02-18T10:09:23.177Z,19.50
2019-02-18T10:11:54.860Z,19.90
2019-02-18T10:14:26.681Z,20.20
2019-02-18T10:16:58.356Z,20.60
2019-02-18T10:19:30.232Z,20.90
2019-02-18T10:22:02.424Z,21.20
2019-02-18T10:24:34.138Z,21.50
2019-02-18T10:27:06.071Z,21.80
2019-02-18T10:29:37.833Z,22.10
2019-02-18T10:32:09.556Z,22.40
2019-02-18T10:34:41.245Z,22.80
2019-02-18T10:37:13.660Z,23.10
2019-02-18T10:39:45.886Z,23.50
2019-02-18T10:42:18.372Z,23.80
2019-02-18T10:44:50.737Z,24.20
2019-02-18T10:47:23.299Z,24.50
2019-02-18T10:49:55.601Z,24.80
2019-02-18T10:52:27.949Z,25.20
2019-02-18T10:55:00.273Z,25.60
2019-02-18T10:57:32.564Z,25.90
2019-02-18T11:00:07.823Z,26.30
2019-02-18T11:02:40.244Z,26.60
2019-02-18T11:05:12.559Z,26.90
2019-02-18T11:07:45.095Z,27.20
2019-02-18T11:10:17.549Z,27.50
2019-02-18T11:12:49.790Z,27.70
2019-02-18T11:15:22.031Z,27.90
2019-02-18T11:17:54.398Z,28.20
2019-02-18T11:20:26.680Z,28.40
2019-02-18T11:22:58.949Z,28.60
2019-02-18T11:25:31.220Z,28.80
2019-02-18T11:28:04.025Z,29.00
2019-02-18T11:30:38.969Z,29.30
2019-02-18T11:33:10.346Z,29.50
2019-02-18T11:35:42.672Z,29.80
2019-02-18T11:38:15.140Z,30.10
2019-02-18T11:40:47.522Z,30.30
2019-02-18T11:43:19.827Z,30.50
2019-02-18T11:45:52.048Z,30.70
2019-02-18T11:48:24.280Z,30.90
2019-02-18T11:50:57.032Z,31.10
2019-02-18T11:53:29.565Z,31.20
2019-02-18T11:56:02.116Z,31.30
2019-02-18T11:58:34.485Z,31.40
2019-02-18T12:01:06.836Z,31.50
2019-02-18T12:03:39.257Z,31.50
2019-02-18T12:06:11.637Z,31.60
2019-02-18T12:08:44.270Z,31.60
2019-02-18T12:11:16.628Z,31.70
2019-02-18T12:13:48.907Z,31.70
2019-02-18T12:16:21.336Z,31.60
2019-02-18T12:18:53.598Z,31.50
2019-02-18T12:21:25.881Z,31.40
2019-02-18T12:23:58.235Z,31.30
2019-02-18T12:26:30.622Z,31.40
2019-02-18T12:29:02.884Z,31.50
2019-02-18T12:31:35.218Z,31.70
2019-02-18T12:34:07.479Z,31.80
2019-02-18T12:36:39.822Z,32.00
2019-02-18T12:39:14.637Z,32.10
2019-02-18T12:41:49.034Z,32.30
2019-02-18T12:44:22.451Z,32.40
2019-02-18T12:46:54.932Z,32.60
2019-02-18T12:49:27.299Z,32.70
2019-02-18T12:52:08.510Z,32.80
2019-02-18T12:54:40.998Z,32.80
2019-02-18T12:57:13.479Z,32.80
2019-02-18T12:59:45.801Z,32.70
2019-02-18T13:02:18.440Z,32.60
2019-02-18T13:04:50.922Z,32.60
2019-02-18T13:07:23.141Z,32.50
2019-02-18T13:09:55.504Z,32.40
2019-02-18T13:12:27.874Z,32.40
2019-02-18T13:15:00.335Z,32.20
2019-02-18T13:17:32.721Z,31.90
2019-02-18T13:20:05.203Z,31.80
2019-02-18T13:22:37.697Z,31.60
2019-02-18T13:25:10.387Z,31.40
2019-02-18T13:27:42.895Z,31.20
2019-02-18T13:30:16.450Z,31.10
2019-02-18T13:32:48.829Z,30.90
2019-02-18T13:35:21.157Z,30.80
2019-02-18T13:37:53.537Z,30.60
2019-02-18T13:40:25.912Z,30.40
2019-02-18T13:42:58.329Z,30.90
2019-02-18T13:45:30.641Z,30.10
2019-02-18T13:48:03.135Z,29.90
2019-02-18T13:50:35.580Z,29.70
2019-02-18T13:53:08.247Z,29.40
2019-02-18T13:55:40.725Z,29.10
2019-02-18T13:58:13.029Z,28.80
2019-02-18T14:00:45.423Z,28.60
2019-02-18T14:03:17.707Z,28.40
2019-02-18T14:05:50.257Z,28.20
2019-02-18T14:08:22.525Z,28.10
2019-02-18T14:10:54.932Z,28.10
2019-02-18T14:13:27.312Z,28.00
2019-02-18T14:15:59.948Z,27.90
2019-02-18T14:18:32.291Z,27.80
2019-02-18T14:21:04.596Z,27.60
2019-02-18T14:23:37.038Z,27.30
2019-02-18T14:26:09.542Z,27.00
2019-02-18T14:28:42.463Z,26.70
2019-02-18T14:31:14.926Z,26.40
2019-02-18T14:33:47.231Z,26.20
2019-02-18T14:36:19.607Z,26.10
2019-02-18T14:38:51.925Z,26.00
2019-02-18T14:41:24.511Z,25.90
2019-02-18T14:43:57.054Z,25.80
2019-02-18T14:46:29.301Z,25.60
2019-02-18T14:49:01.568Z,25.40
2019-02-18T14:51:33.971Z,25.30
2019-02-18T14:54:08.352Z,25.30
2019-02-18T14:56:42.570Z,25.20
2019-02-18T14:59:14.884Z,25.10
2019-02-18T15:01:47.299Z,24.90
2019-02-18T15:04:19.917Z,24.70
2019-02-18T15:06:51.681Z,24.60
2019-02-18T15:09:24.086Z,24.40
2019-02-18T15:11:55.863Z,24.30
2019-02-18T15:14:27.658Z,24.10
2019-02-18T15:17:18.674Z,23.80
2019-02-18T15:19:50.375Z,23.60
2019-02-18T15:22:22.129Z,23.40
2019-02-18T15:24:53.968Z,23.20
2019-02-18T15:27:25.942Z,23.00
2019-02-18T15:29:57.806Z,22.90
2019-02-18T15:32:29.755Z,22.80
2019-02-18T15:35:01.485Z,22.70
2019-02-18T15:37:33.552Z,22.60
2019-02-18T15:40:06.398Z,22.50
2019-02-18T15:42:42.295Z,22.50
2019-02-18T15:45:12.094Z,22.40
2019-02-18T15:47:43.860Z,22.20
2019-02-18T15:50:16.759Z,22.10
2019-02-18T15:52:52.450Z,22.00
2019-02-18T15:55:30.087Z,21.90
2019-02-18T15:58:03.423Z,21.70
2019-02-18T16:00:38.483Z,21.60
2019-02-18T16:03:10.220Z,21.50
2019-02-18T16:05:42.095Z,21.40
2019-02-18T16:08:13.848Z,21.30
2019-02-18T16:10:47.741Z,21.20
2019-02-18T16:13:19.486Z,21.10
2019-02-18T16:15:52.431Z,21.00
2019-02-18T16:18:25.762Z,20.90
2019-02-18T16:20:57.571Z,20.70
2019-02-18T16:23:29.379Z,20.60
2019-02-18T16:26:01.127Z,20.50
2019-02-18T16:28:32.870Z,20.40
2019-02-18T16:31:04.775Z,20.30
2019-02-18T16:33:36.597Z,20.10
2019-02-18T16:36:10.079Z,20.00
2019-02-18T16:38:43.253Z,19.90
2019-02-18T16:41:16.501Z,19.80
2019-02-18T16:43:48.451Z,19.70
2019-02-18T16:46:20.580Z,19.60
2019-02-18T16:48:56.494Z,19.40
2019-02-18T16:51:28.203Z,19.40
2019-02-18T16:54:02.151Z,19.30
2019-02-18T16:56:35.327Z,19.20
2019-02-18T16:59:07.381Z,19.00
2019-02-18T17:01:39.146Z,18.90
2019-02-18T17:04:10.892Z,18.80
2019-02-18T17:06:44.268Z,18.70
2019-02-18T17:09:16.324Z,18.50
2019-02-18T17:11:48.087Z,18.40
2019-02-18T17:14:20.051Z,18.30
2019-02-18T17:16:52.363Z,18.20
2019-02-18T17:19:25.484Z,18.00
2019-02-18T17:21:57.198Z,17.90
2019-02-18T17:24:28.981Z,17.80
2019-02-18T17:27:00.806Z,17.70
2019-02-18T17:29:32.756Z,17.60
2019-02-18T17:32:04.723Z,17.50
2019-02-18T17:34:36.552Z,17.40
2019-02-18T17:37:08.310Z,17.30
2019-02-18T17:39:40.160Z,17.20
2019-02-18T17:42:12.028Z,17.10
2019-02-18T17:44:43.856Z,17.10
2019-02-18T17:47:15.827Z,16.90
2019-02-18T17:49:47.598Z,16.90
2019-02-18T17:52:19.477Z,16.70
2019-02-18T17:54:52.791Z,16.70
2019-02-18T17:57:24.765Z,16.60
2019-02-18T17:59:56.592Z,16.50
2019-02-18T18:02:28.470Z,16.50
2019-02-18T18:05:00.291Z,16.40
2019-02-18T18:07:32.111Z,16.30
2019-02-18T18:10:03.867Z,16.30
2019-02-18T18:12:39.559Z,16.20
2019-02-18T18:15:10.764Z,16.10
2019-02-18T18:17:45.163Z,16.10
2019-02-18T18:20:18.232Z,16.00
2019-02-18T18:22:52.431Z,15.90
2019-02-18T18:25:24.238Z,15.90
2019-02-18T18:27:56.216Z,15.80
2019-02-18T18:30:28.204Z,15.70
2019-02-18T18:33:01.290Z,15.70
2019-02-18T18:35:33.010Z,15.70
2019-02-18T18:38:06.847Z,15.60
2019-02-18T18:40:41.555Z,15.50
2019-02-18T18:43:13.603Z,15.50
2019-02-18T18:45:46.401Z,15.40
2019-02-18T18:48:21.585Z,15.40
2019-02-18T18:50:53.437Z,15.30
2019-02-18T18:53:28.232Z,15.30
2019-02-18T18:56:00.073Z,15.20
2019-02-18T18:58:33.357Z,15.20
2019-02-18T19:01:08.228Z,15.10
2019-02-18T19:03:43.043Z,15.10
2019-02-18T19:06:16.623Z,15.00
2019-02-18T19:08:48.779Z,15.00
2019-02-18T19:11:20.682Z,14.90
2019-02-18T19:13:52.419Z,14.90
2019-02-18T19:16:24.354Z,14.90
2019-02-18T19:18:57.536Z,14.80
2019-02-18T19:21:29.507Z,14.70
2019-02-18T19:24:01.396Z,14.70
2019-02-18T19:26:33.387Z,14.60
2019-02-18T19:29:05.243Z,14.60
2019-02-18T19:31:38.679Z,14.50
2019-02-18T19:34:10.617Z,14.50
2019-02-18T19:36:42.619Z,14.40
2019-02-18T19:39:19.904Z,14.40
2019-02-18T19:41:51.839Z,14.30
2019-02-18T19:44:24.025Z,14.30
2019-02-18T19:46:56.110Z,14.20
2019-02-18T19:49:30.546Z,14.20
2019-02-18T19:52:02.473Z,14.10
2019-02-18T19:54:34.314Z,14.10
2019-02-18T19:57:06.124Z,14.00
2019-02-18T19:59:37.952Z,14.00
2019-02-18T20:02:11.303Z,14.00
2019-02-18T20:04:43.416Z,13.90
2019-02-18T20:07:15.583Z,13.90
2019-02-18T20:09:47.642Z,13.90
2019-02-18T20:12:19.503Z,13.80
2019-02-18T20:14:51.216Z,13.80
2019-02-18T20:17:23.097Z,13.70
2019-02-18T20:19:55.039Z,13.70
2019-02-18T20:22:27.073Z,13.60
2019-02-18T20:24:59.469Z,13.70
2019-02-18T20:27:31.348Z,13.60
2019-02-18T20:30:03.322Z,13.60
2019-02-18T20:32:35.150Z,13.60
2019-02-18T20:35:07.863Z,13.60
2019-02-18T20:37:39.856Z,13.50
2019-02-18T20:40:12.647Z,13.50
2019-02-18T20:42:44.820Z,13.50
2019-02-18T20:45:16.908Z,13.40
2019-02-18T20:47:48.663Z,13.40
2019-02-18T20:50:20.521Z,13.40
2019-02-18T20:52:52.328Z,13.30
2019-02-18T20:55:24.273Z,13.20
2019-02-18T20:57:56.131Z,13.30
2019-02-18T21:00:27.992Z,13.30
2019-02-18T21:02:59.806Z,13.20
2019-02-18T21:05:31.616Z,13.20
2019-02-18T21:08:03.850Z,13.20
2019-02-18T21:10:35.747Z,14.00
2019-02-18T21:13:07.551Z,13.10
2019-02-18T21:15:40.787Z,12.60
2019-02-18T21:18:12.834Z,13.10
2019-02-18T21:20:44.656Z,13.10
2019-02-18T21:23:16.924Z,13.00
2019-02-18T21:25:48.715Z,13.00
2019-02-18T21:28:21.806Z,13.00
2019-02-18T21:30:53.945Z,12.90
2019-02-18T21:33:25.806Z,12.80
2019-02-18T21:35:57.557Z,12.90
2019-02-18T21:38:31.406Z,12.80
2019-02-18T21:41:05.930Z,12.80
2019-02-18T21:43:39.297Z,12.80
2019-02-18T21:46:16.549Z,12.80
2019-02-18T21:48:48.490Z,12.70
2019-02-18T21:51:21.459Z,12.80
2019-02-18T21:53:53.683Z,12.60
2019-02-18T21:56:26.587Z,12.60
2019-02-18T21:58:59.118Z,12.60
2019-02-18T22:01:38.574Z,12.50
2019-02-18T22:04:11.080Z,12.60
2019-02-18T22:06:44.055Z,12.50
2019-02-18T22:09:15.756Z,12.50
2019-02-18T22:11:48.580Z,12.50
2019-02-18T22:14:21.279Z,12.50
2019-02-18T22:16:53.564Z,12.50
2019-02-18T22:19:26.193Z,12.50
2019-02-18T22:21:59.693Z,12.50
2019-02-18T22:24:33.469Z,12.40
2019-02-18T22:27:08.050Z,12.40
2019-02-18T22:29:42.219Z,12.40
2019-02-18T22:32:17.636Z,12.10
2019-02-18T22:34:49.813Z,12.40
2019-02-18T22:37:30.290Z,12.30
2019-02-18T22:40:05.243Z,12.30
2019-02-18T22:42:41.441Z,12.30
2019-02-18T22:45:13.913Z,12.30
2019-02-18T22:47:47.008Z,12.20
2019-02-18T22:50:19.629Z,12.20
2019-02-18T22:52:51.669Z,12.20
2019-02-18T22:55:25.809Z,12.20
2019-02-18T22:57:58.480Z,12.20
2019-02-18T23:01:00.881Z,12.20
2019-02-18T23:03:33.027Z,12.20
2019-02-18T23:06:06.012Z,12.10
2019-02-18T23:08:42.657Z,12.10
2019-02-18T23:11:14.737Z,12.10
2019-02-18T23:13:47.460Z,12.10
2019-02-18T23:16:21.754Z,12.10
2019-02-18T23:18:54.549Z,12.10
2019-02-18T23:21:27.524Z,12.00
2019-02-18T23:24:00.426Z,12.00
2019-02-18T23:26:37.370Z,12.00
2019-02-18T23:29:12.322Z,11.90
2019-02-18T23:31:44.674Z,12.00
2019-02-18T23:34:17.652Z,12.00
2019-02-18T23:36:51.376Z,11.90
2019-02-18T23:39:24.682Z,11.90
2019-02-18T23:41:57.669Z,11.80
2019-02-18T23:44:31.210Z,11.90
2019-02-18T23:47:04.105Z,11.90
2019-02-18T23:49:37.892Z,11.90
2019-02-18T23:52:10.885Z,11.90
2019-02-18T23:54:56.234Z,11.90
2019-02-18T23:57:29.529Z,11.90
